Time;durP1;ratioP1;P1;durP2;ratioP2;P2;SDS_P1;SDS_P2;PMS_P1;PMS_P2;Temp;Humidity;BMP_temperature;BMP_pressure;BME280_temperature;BME280_humidity;BME280_pressure;Samples;Min_cycle;Max_cycle;Signal;HPM_P1;HPM_P2
2022/07/02 00:00:59;;;;;;;4.30;2.58;;;14.70;1.00;;;;;;5095083;27;20207;-64
2022/07/02 00:03:31;;;;;;;3.78;2.10;;;14.60;1.00;;;;;;5075774;28;20196;-64
2022/07/02 00:06:00;;;;;;;3.10;2.20;;;14.80;1.00;;;;;;5071308;27;20223;-64
2022/07/02 00:08:29;;;;;;;4.55;2.10;;;15.00;1.00;;;;;;5078148;28;20480;-64
2022/07/02 00:10:57;;;;;;;1.85;1.75;;;14.80;1.00;;;;;;5070352;27;20234;-63
2022/07/02 00:13:26;;;;;;;4.95;1.90;;;14.80;1.00;;;;;;5064522;27;20207;-64
2022/07/02 00:15:53;;;;;;;1.98;1.88;;;15.00;1.00;;;;;;5054822;27;20361;-64
2022/07/02 00:18:21;;;;;;;7.63;2.10;;;14.80;1.00;;;;;;5088936;27;20265;-64
2022/07/02 00:20:48;;;;;;;2.50;1.88;;;15.00;1.00;;;;;;5074183;27;20199;-64
2022/07/02 00:23:15;;;;;;;1.98;1.88;;;14.80;1.00;;;;;;5090850;28;20199;-64
2022/07/02 00:25:47;;;;;;;4.60;2.25;;;14.70;1.00;;;;;;5074632;27;20701;-64
2022/07/02 00:28:17;;;;;;;3.80;2.25;;;14.80;1.00;;;;;;5057557;28;20234;-63
2022/07/02 00:30:47;;;;;;;4.53;1.95;;;14.70;1.00;;;;;;5075662;27;20202;-64
2022/07/02 00:33:15;;;;;;;6.38;2.72;;;14.70;1.00;;;;;;5081955;28;20203;-64
2022/07/02 00:35:42;;;;;;;3.80;2.45;;;15.50;1.20;;;;;;5075009;27;20223;-64
2022/07/02 00:38:09;;;;;;;2.85;2.53;;;14.60;4.00;;;;;;5075528;28;20227;-63
2022/07/02 00:40:37;;;;;;;4.15;2.65;;;14.80;1.60;;;;;;5077711;27;20214;-64
2022/07/02 00:43:05;;;;;;;2.97;2.78;;;15.00;1.00;;;;;;5074993;28;20211;-63
2022/07/02 00:45:34;;;;;;;3.75;2.70;;;14.80;1.00;;;;;;5053549;28;20227;-64
2022/07/02 00:48:01;;;;;;;3.88;2.85;;;14.80;1.00;;;;;;5068038;27;20223;-64
2022/07/02 00:50:29;;;;;;;4.50;2.42;;;14.70;1.00;;;;;;5088030;27;20206;-64
2022/07/02 00:52:55;;;;;;;3.33;2.20;;;14.70;1.00;;;;;;5090511;27;20195;-64
2022/07/02 00:55:22;;;;;;;7.63;3.13;;;14.60;1.00;;;;;;5067380;27;20219;-64
2022/07/02 00:57:49;;;;;;;6.90;3.28;;;14.70;1.00;;;;;;5064142;28;20220;-64
2022/07/02 01:00:19;;;;;;;3.33;2.92;;;14.60;1.00;;;;;;5069013;27;20210;-63
2022/07/02 01:02:48;;;;;;;3.70;3.17;;;14.70;1.00;;;;;;5048193;27;20219;-63
2022/07/02 01:05:16;;;;;;;5.82;2.90;;;14.60;1.00;;;;;;5086475;27;20207;-64
2022/07/02 01:07:45;;;;;;;4.18;2.70;;;14.60;1.00;;;;;;5084241;27;20235;-65
2022/07/02 01:10:16;;;;;;;5.35;3.05;;;14.80;1.00;;;;;;5071858;28;20226;-63
2022/07/02 01:12:45;;;;;;;3.80;3.00;;;14.60;1.00;;;;;;5076808;27;20714;-64
2022/07/02 01:15:13;;;;;;;4.20;3.10;;;15.90;1.00;;;;;;5071155;27;20781;-64
2022/07/02 01:17:41;;;;;;;4.13;2.97;;;14.70;1.00;;;;;;5075601;28;20220;-64
2022/07/02 01:20:10;;;;;;;5.05;3.42;;;14.90;1.00;;;;;;5073618;28;20230;-63
2022/07/02 01:22:39;;;;;;;4.03;3.03;;;14.90;1.00;;;;;;5079516;27;20220;-64
2022/07/02 01:25:07;;;;;;;3.42;3.00;;;14.70;1.00;;;;;;5082090;27;20252;-63
2022/07/02 01:27:35;;;;;;;12.10;3.50;;;14.90;1.00;;;;;;5053229;27;20223;-64
2022/07/02 01:30:02;;;;;;;4.35;3.10;;;17.20;1.00;;;;;;5078558;27;20689;-64
2022/07/02 01:32:29;;;;;;;6.03;3.50;;;14.90;1.00;;;;;;5060013;27;20206;-63
2022/07/02 01:35:03;;;;;;;6.07;3.60;;;15.00;1.00;;;;;;5076715;28;20231;-62
2022/07/02 01:37:30;;;;;;;3.53;2.92;;;14.80;1.00;;;;;;5088858;27;20226;-64
2022/07/02 01:39:59;;;;;;;6.95;3.20;;;14.60;1.00;;;;;;5090721;28;20634;-63
2022/07/02 01:42:26;;;;;;;3.90;3.00;;;14.50;1.00;;;;;;5065159;28;21595;-64
2022/07/02 01:44:52;;;;;;;7.50;3.45;;;14.70;1.00;;;;;;5088506;28;20223;-64
2022/07/02 01:47:19;;;;;;;4.82;3.58;;;14.70;1.00;;;;;;5051895;28;24760;-64
2022/07/02 01:49:47;;;;;;;5.82;3.63;;;14.70;1.00;;;;;;5080756;28;20215;-63
2022/07/02 01:52:15;;;;;;;5.30;3.60;;;14.10;1.00;;;;;;5087789;27;20201;-64
2022/07/02 01:54:43;;;;;;;3.95;3.40;;;14.80;1.00;;;;;;5084188;28;20629;-63
2022/07/02 01:57:12;;;;;;;5.88;3.42;;;;;;;;;;5064292;28;20736;-64
2022/07/02 01:59:39;;;;;;;5.30;2.88;;;14.80;1.00;;;;;;5092527;28;20203;-63
2022/07/02 02:02:07;;;;;;;6.10;3.50;;;15.40;1.00;;;;;;5047912;28;20207;-63
2022/07/02 02:04:34;;;;;;;4.22;2.70;;;16.90;1.00;;;;;;5066278;28;20203;-64
2022/07/02 02:07:01;;;;;;;4.28;2.90;;;14.80;1.00;;;;;;5084454;28;20927;-63
2022/07/02 02:09:29;;;;;;;4.85;3.35;;;14.90;1.00;;;;;;5090185;28;20199;-64
2022/07/02 02:11:55;;;;;;;3.38;2.90;;;15.00;1.00;;;;;;5068230;28;20230;-63
2022/07/02 02:14:24;;;;;;;5.15;3.25;;;14.80;1.00;;;;;;5076934;28;20207;-64
2022/07/02 02:16:51;;;;;;;4.75;3.03;;;14.80;1.00;;;;;;5057332;28;20203;-64
2022/07/02 02:19:18;;;;;;;4.75;3.20;;;15.00;1.00;;;;;;5068257;28;20207;-64
2022/07/02 02:21:44;;;;;;;5.18;3.33;;;14.80;1.00;;;;;;5077244;28;20206;-64
2022/07/02 02:24:11;;;;;;;2.92;2.58;;;14.70;1.00;;;;;;5083390;28;20195;-63
2022/07/02 02:26:38;;;;;;;6.05;3.50;;;14.70;1.00;;;;;;5078278;28;20200;-64
2022/07/02 02:29:05;;;;;;;4.35;3.30;;;14.60;1.00;;;;;;5078082;27;21238;-64
2022/07/02 02:31:33;;;;;;;4.57;3.75;;;14.50;1.00;;;;;;5072241;27;20210;-64
2022/07/02 02:34:00;;;;;;;7.53;4.53;;;14.70;1.00;;;;;;5074945;27;20202;-63
2022/07/02 02:36:27;;;;;;;3.65;3.22;;;14.70;1.00;;;;;;5075694;27;20219;-64
2022/07/02 02:38:54;;;;;;;4.03;3.55;;;14.50;1.00;;;;;;5084812;28;20211;-63
2022/07/02 02:41:20;;;;;;;5.82;3.65;;;14.60;1.00;;;;;;5079209;28;20215;-63
2022/07/02 02:43:47;;;;;;;5.18;3.60;;;15.10;1.00;;;;;;5064386;27;20626;-63
2022/07/02 02:46:14;;;;;;;6.82;3.50;;;14.60;1.00;;;;;;5067406;27;20223;-63
2022/07/02 02:48:42;;;;;;;7.63;3.60;;;14.30;1.00;;;;;;5057401;27;20342;-63
2022/07/02 02:51:11;;;;;;;5.38;3.40;;;14.40;1.00;;;;;;5082794;28;20207;-62
2022/07/02 02:53:38;;;;;;;6.47;3.25;;;14.20;1.00;;;;;;5061276;27;20340;-62
2022/07/02 02:56:05;;;;;;;6.93;3.65;;;14.30;1.00;;;;;;5088728;27;20867;-62
2022/07/02 02:58:31;;;;;;;7.18;3.30;;;14.50;1.00;;;;;;5079830;28;20231;-64
2022/07/02 03:00:58;;;;;;;8.27;3.45;;;14.30;1.00;;;;;;5075363;27;20230;-63
2022/07/02 03:03:26;;;;;;;8.25;3.95;;;14.40;1.00;;;;;;5063617;27;20196;-63
2022/07/02 03:05:54;;;;;;;4.60;3.58;;;14.00;1.00;;;;;;5073420;28;20199;-63
2022/07/02 03:08:21;;;;;;;4.38;3.97;;;14.30;1.00;;;;;;5083127;27;20329;-63
2022/07/02 03:10:48;;;;;;;4.97;3.88;;;14.30;1.00;;;;;;5079917;27;20203;-62
2022/07/02 03:13:15;;;;;;;6.63;3.83;;;14.20;1.00;;;;;;5094670;28;20188;-62
2022/07/02 03:15:42;;;;;;;7.75;4.00;;;14.30;1.00;;;;;;5061657;27;20230;-63
2022/07/02 03:18:09;;;;;;;8.52;3.67;;;14.40;1.00;;;;;;5070249;28;20208;-63
2022/07/02 03:20:35;;;;;;;6.70;4.10;;;14.20;1.00;;;;;;5072387;27;20234;-63
2022/07/02 03:23:04;;;;;;;7.22;3.53;;;14.20;1.00;;;;;;5067069;27;20206;-63
2022/07/02 03:25:30;;;;;;;6.60;3.80;;;14.20;1.00;;;;;;5072636;28;20192;-62
2022/07/02 03:27:57;;;;;;;4.10;3.70;;;14.30;1.00;;;;;;5081658;28;20234;-62
2022/07/02 03:30:24;;;;;;;3.58;3.28;;;14.20;1.00;;;;;;5074198;27;20211;-63
2022/07/02 03:32:51;;;;;;;3.50;3.03;;;14.00;1.00;;;;;;5059129;28;20192;-62
2022/07/02 03:35:18;;;;;;;7.10;3.33;;;14.20;1.00;;;;;;5057824;27;20708;-63
2022/07/02 03:37:45;;;;;;;6.82;3.13;;;14.20;1.00;;;;;;5084396;28;20224;-63
2022/07/02 03:40:13;;;;;;;3.75;3.45;;;14.00;1.00;;;;;;5078489;27;20196;-63
2022/07/02 03:42:40;;;;;;;8.85;3.53;;;14.20;1.00;;;;;;5089125;27;20199;-63
2022/07/02 03:45:07;;;;;;;7.43;3.47;;;14.30;1.00;;;;;;5074001;27;20749;-63
2022/07/02 03:47:34;;;;;;;3.42;3.13;;;14.20;1.00;;;;;;5066635;28;20891;-63
2022/07/02 03:50:01;;;;;;;4.32;3.17;;;13.90;1.00;;;;;;5069313;27;21659;-63
2022/07/02 03:52:28;;;;;;;8.90;3.15;;;14.40;1.00;;;;;;5058651;28;20737;-63
2022/07/02 03:54:55;;;;;;;5.43;3.13;;;14.20;1.00;;;;;;5076897;27;20241;-63
2022/07/02 03:57:23;;;;;;;6.75;3.00;;;14.30;1.00;;;;;;5071911;28;20207;-63
2022/07/02 03:59:50;;;;;;;3.30;2.78;;;14.20;1.00;;;;;;5088200;27;20200;-63
2022/07/02 04:02:18;;;;;;;5.35;3.33;;;14.20;1.00;;;;;;5073370;28;20669;-63
2022/07/02 04:04:45;;;;;;;8.82;3.53;;;14.10;1.00;;;;;;5061441;28;20311;-63
2022/07/02 04:07:11;;;;;;;6.18;3.55;;;14.10;1.00;;;;;;5074534;27;20226;-63
2022/07/02 04:09:38;;;;;;;3.63;3.33;;;14.20;1.00;;;;;;5071035;27;20625;-63
2022/07/02 04:12:06;;;;;;;6.88;3.13;;;14.10;1.00;;;;;;5091641;27;20231;-63
2022/07/02 04:14:34;;;;;;;9.98;3.35;;;14.30;1.00;;;;;;5086030;27;20203;-63
2022/07/02 04:17:01;;;;;;;8.65;3.63;;;14.10;1.00;;;;;;5079863;27;20219;-63
2022/07/02 04:19:28;;;;;;;4.45;3.42;;;14.10;1.00;;;;;;5067701;27;20603;-63
2022/07/02 04:21:55;;;;;;;9.38;3.85;;;14.00;1.00;;;;;;5074134;28;20272;-63
2022/07/02 04:24:22;;;;;;;8.38;3.70;;;14.10;1.00;;;;;;5070778;27;20209;-63
2022/07/02 04:26:49;;;;;;;7.18;3.35;;;13.90;1.00;;;;;;5079890;27;20681;-63
2022/07/02 04:29:16;;;;;;;5.53;3.40;;;;;;;;;;5084275;27;20681;-63
2022/07/02 04:31:44;;;;;;;7.30;3.40;;;14.20;1.00;;;;;;5074471;27;20220;-64
2022/07/02 04:34:11;;;;;;;5.20;3.25;;;14.30;7.80;;;;;;5068987;28;20196;-63
2022/07/02 04:36:39;;;;;;;6.80;3.50;;;14.20;5.20;;;;;;5083256;27;20200;-63
2022/07/02 04:39:06;;;;;;;5.43;3.92;;;14.30;7.70;;;;;;5061917;27;20227;-64
2022/07/02 04:41:33;;;;;;;5.38;3.13;;;14.30;8.90;;;;;;5073245;27;20195;-63
2022/07/02 04:43:59;;;;;;;8.90;3.60;;;14.10;15.80;;;;;;5093290;27;20748;-63
2022/07/02 04:46:26;;;;;;;4.68;2.97;;;14.50;12.70;;;;;;5065486;27;20204;-63
2022/07/02 04:48:55;;;;;;;8.70;3.40;;;13.90;23.20;;;;;;5077367;28;20231;-63
2022/07/02 04:51:21;;;;;;;3.92;3.30;;;14.70;25.10;;;;;;5063770;27;20261;-63
2022/07/02 04:53:48;;;;;;;9.63;3.58;;;14.70;24.60;;;;;;5077111;28;20207;-63
2022/07/02 04:56:15;;;;;;;10.90;3.47;;;14.60;29.60;;;;;;5089171;27;20207;-63
2022/07/02 04:58:42;;;;;;;7.60;3.47;;;14.80;27.70;;;;;;5074327;27;20214;-63
2022/07/02 05:01:12;;;;;;;4.70;3.65;;;14.80;27.90;;;;;;5075298;27;20199;-62
2022/07/02 05:03:38;;;;;;;6.75;3.63;;;15.00;33.70;;;;;;5075397;27;20207;-63
2022/07/02 05:06:07;;;;;;;3.90;3.47;;;15.10;30.90;;;;;;5072151;27;20203;-63
2022/07/02 05:08:33;;;;;;;4.50;3.60;;;15.20;30.00;;;;;;5077410;28;20219;-63
2022/07/02 05:11:00;;;;;;;5.85;4.15;;;15.10;26.60;;;;;;5080561;27;20230;-62
2022/07/02 05:13:27;;;;;;;7.50;3.50;;;15.20;27.50;;;;;;5073765;27;20199;-63
2022/07/02 05:15:54;;;;;;;6.50;4.20;;;15.30;27.10;;;;;;5083926;27;20195;-63
2022/07/02 05:18:21;;;;;;;5.35;3.47;;;13.40;15.20;;;;;;5073956;28;20212;-63
2022/07/02 05:20:48;;;;;;;4.47;3.38;;;15.20;7.30;;;;;;5062624;28;20303;-63
2022/07/02 05:23:16;;;;;;;7.10;3.30;;;15.40;1.00;;;;;;5083232;27;20934;-63
2022/07/02 05:25:43;;;;;;;8.15;4.00;;;15.40;1.00;;;;;;5068019;27;20799;-63
2022/07/02 05:28:10;;;;;;;3.88;3.45;;;15.40;1.00;;;;;;5073605;27;20232;-63
2022/07/02 05:30:36;;;;;;;4.60;3.35;;;15.40;1.00;;;;;;5073073;28;20226;-63
2022/07/02 05:33:03;;;;;;;7.05;3.60;;;15.70;1.00;;;;;;5077050;28;20215;-63
2022/07/02 05:35:31;;;;;;;3.40;3.08;;;15.80;1.00;;;;;;5059693;28;20830;-64
2022/07/02 05:37:57;;;;;;;4.97;3.40;;;15.60;1.00;;;;;;5096252;27;20202;-63
2022/07/02 05:40:26;;;;;;;5.88;3.35;;;15.70;1.00;;;;;;5065475;27;20200;-63
2022/07/02 05:42:52;;;;;;;5.55;2.90;;;15.70;1.00;;;;;;5077537;28;20223;-63
2022/07/02 05:45:19;;;;;;;3.40;3.10;;;15.80;1.00;;;;;;5091286;27;20223;-63
2022/07/02 05:47:46;;;;;;;9.80;3.20;;;15.90;1.00;;;;;;5065846;28;20226;-63
2022/07/02 05:50:13;;;;;;;8.93;3.38;;;15.80;1.00;;;;;;5069508;27;20226;-63
2022/07/02 05:52:41;;;;;;;5.63;2.95;;;;;;;;;;5066968;28;20380;-64
2022/07/02 05:55:09;;;;;;;4.07;3.45;;;16.10;1.00;;;;;;5078033;28;23539;-63
2022/07/02 05:57:37;;;;;;;2.60;2.40;;;16.10;1.00;;;;;;5075881;28;20199;-63
2022/07/02 06:00:04;;;;;;;5.50;3.40;;;16.30;1.00;;;;;;5077932;28;20306;-63
2022/07/02 06:02:31;;;;;;;3.53;3.00;;;16.30;1.00;;;;;;5052755;27;20717;-63
2022/07/02 06:04:58;;;;;;;5.28;2.72;;;16.60;1.00;;;;;;5069404;27;20211;-64
2022/07/02 06:07:39;;;;;;;6.85;3.10;;;16.30;1.00;;;;;;5063538;28;20215;-63
2022/07/02 06:10:07;;;;;;;3.92;2.72;;;16.50;1.00;;;;;;5079389;28;20360;-65
2022/07/02 06:12:34;;;;;;;2.58;2.33;;;16.40;1.00;;;;;;5064297;28;20226;-63
2022/07/02 06:15:04;;;;;;;8.02;2.70;;;;;;;;;;5075159;28;20369;-63
2022/07/02 06:17:31;;;;;;;10.88;3.47;;;16.60;1.00;;;;;;5063112;28;20625;-64
2022/07/02 06:19:58;;;;;;;5.80;2.58;;;16.50;1.00;;;;;;5064236;22;20236;-63
2022/07/02 06:22:26;;;;;;;4.75;2.70;;;16.70;1.00;;;;;;4999832;28;20209;-64
2022/07/02 06:24:55;;;;;;;3.42;3.00;;;;;;;;;;5029475;28;20220;-63
2022/07/02 06:27:22;;;;;;;6.13;2.38;;;17.10;1.00;;;;;;5015541;28;20887;-63
2022/07/02 06:29:49;;;;;;;3.50;2.38;;;16.90;1.00;;;;;;5038203;28;20232;-64
2022/07/02 06:32:18;;;;;;;4.50;2.10;;;16.90;1.00;;;;;;5043771;28;20197;-63
2022/07/02 06:34:44;;;;;;;7.50;2.25;;;17.00;1.00;;;;;;4997244;28;20737;-63
2022/07/02 06:37:11;;;;;;;7.38;2.30;;;17.00;1.00;;;;;;5026904;28;20683;-63
2022/07/02 06:39:38;;;;;;;3.63;2.03;;;17.10;1.00;;;;;;5014380;28;20257;-64
2022/07/02 06:42:22;;;;;;;5.40;1.80;;;17.00;1.00;;;;;;5027865;28;20209;-64
2022/07/02 06:44:50;;;;;;;7.03;2.08;;;17.10;1.00;;;;;;5040112;22;20335;-64
2022/07/02 06:47:19;;;;;;;6.10;2.25;;;17.30;1.00;;;;;;5044473;28;20299;-64
2022/07/02 06:49:46;;;;;;;2.67;1.60;;;17.30;1.00;;;;;;5000178;28;20888;-64
2022/07/02 06:52:13;;;;;;;3.55;2.03;;;17.40;99.90;;;;;;4999840;28;20652;-64
2022/07/02 06:54:40;;;;;;;11.70;2.30;;;17.40;99.90;;;;;;5030641;28;20602;-63
2022/07/02 06:57:12;;;;;;;5.85;2.20;;;17.40;99.90;;;;;;5014494;28;20778;-63
2022/07/02 06:59:39;;;;;;;3.08;1.92;;;17.50;99.90;;;;;;5023884;28;20639;-63
2022/07/02 07:02:07;;;;;;;3.70;1.95;;;17.30;99.90;;;;;;5020147;28;20224;-65
2022/07/02 07:04:36;;;;;;;3.60;2.10;;;17.50;92.60;;;;;;5021018;28;20205;-64
2022/07/02 07:07:05;;;;;;;4.30;2.42;;;18.70;58.40;;;;;;4997645;28;20216;-64
2022/07/02 07:09:34;;;;;;;5.80;2.00;;;17.60;99.90;;;;;;5022774;28;20268;-64
2022/07/02 07:12:04;;;;;;;4.78;2.20;;;16.40;99.90;;;;;;5021719;28;21490;-64
2022/07/02 07:14:31;;;;;;;2.42;1.70;;;17.40;46.50;;;;;;5021181;28;20221;-64
2022/07/02 07:16:58;;;;;;;6.00;1.83;;;17.80;48.10;;;;;;5025562;28;20678;-64
2022/07/02 07:19:25;;;;;;;2.97;2.28;;;18.00;1.00;;;;;;5026513;28;20220;-64
2022/07/02 07:21:53;;;;;;;6.40;2.10;;;17.90;1.00;;;;;;5018850;28;20215;-63
2022/07/02 07:24:20;;;;;;;3.15;2.20;;;18.70;1.00;;;;;;5002083;28;20232;-64
2022/07/02 07:26:46;;;;;;;7.25;1.98;;;17.90;1.00;;;;;;5020770;28;20204;-65
2022/07/02 07:29:14;;;;;;;5.32;1.83;;;;;;;;;;5018853;28;20705;-64
2022/07/02 07:31:41;;;;;;;3.47;2.00;;;18.00;99.90;;;;;;5026457;28;20292;-63
2022/07/02 07:34:08;;;;;;;8.48;2.17;;;18.00;1.00;;;;;;5017878;28;20887;-64
2022/07/02 07:36:35;;;;;;;7.78;1.92;;;18.10;99.90;;;;;;5030229;28;20296;-64
2022/07/02 07:39:05;;;;;;;4.78;2.00;;;18.00;1.00;;;;;;5000214;28;20225;-64
2022/07/02 07:41:32;;;;;;;6.60;2.10;;;18.30;99.90;;;;;;5032512;28;20248;-64
2022/07/02 07:43:59;;;;;;;3.17;2.45;;;18.40;99.90;;;;;;5038111;28;20730;-64
2022/07/02 07:46:26;;;;;;;9.60;2.40;;;18.30;1.00;;;;;;5043533;28;20681;-63
2022/07/02 07:48:53;;;;;;;3.38;2.00;;;;;;;;;;5054416;28;20227;-63
2022/07/02 07:51:20;;;;;;;2.40;1.73;;;18.20;99.90;;;;;;5042104;28;20227;-63
2022/07/02 07:53:48;;;;;;;2.58;1.88;;;;;;;;;;5017326;28;20725;-64
2022/07/02 07:56:16;;;;;;;3.92;1.90;;;18.20;99.90;;;;;;5031552;28;20251;-63
2022/07/02 07:58:44;;;;;;;6.93;1.65;;;18.30;99.90;;;;;;5045094;28;21026;-63
2022/07/02 08:01:10;;;;;;;3.47;1.88;;;18.30;99.90;;;;;;5032411;28;20961;-63
2022/07/02 08:03:38;;;;;;;6.40;1.90;;;18.30;99.90;;;;;;5056862;28;20208;-63
2022/07/02 08:06:05;;;;;;;2.60;1.38;;;18.40;1.00;;;;;;5037454;28;20660;-63
2022/07/02 08:08:32;;;;;;;5.47;1.67;;;18.40;1.00;;;;;;5056956;28;20225;-63
2022/07/02 08:10:59;;;;;;;6.38;1.60;;;18.50;99.90;;;;;;5020695;28;20236;-63
2022/07/02 08:13:27;;;;;;;4.95;1.70;;;18.80;99.90;;;;;;5037780;28;20197;-63
2022/07/02 08:15:54;;;;;;;3.22;1.67;;;18.50;99.90;;;;;;5036472;28;20307;-63
2022/07/02 08:18:21;;;;;;;2.88;1.63;;;18.60;1.00;;;;;;5030003;28;20871;-64
2022/07/02 08:20:48;;;;;;;4.93;1.45;;;18.50;99.90;;;;;;5064912;28;20224;-63
2022/07/02 08:23:15;;;;;;;2.92;1.10;;;18.70;1.00;;;;;;5053406;28;20232;-64
2022/07/02 08:25:42;;;;;;;3.70;1.27;;;18.50;82.80;;;;;;5044469;28;20212;-63
2022/07/02 08:28:09;;;;;;;2.92;1.20;;;19.10;1.00;;;;;;5050860;28;20803;-63
2022/07/02 08:30:38;;;;;;;1.75;1.00;;;18.80;1.00;;;;;;5049133;28;20601;-64
2022/07/02 08:33:05;;;;;;;4.28;1.40;;;18.80;1.00;;;;;;5040975;28;20220;-64
2022/07/02 08:35:32;;;;;;;2.58;1.10;;;18.90;1.00;;;;;;5058683;28;20248;-64
2022/07/02 08:38:02;;;;;;;2.50;1.10;;;18.80;1.00;;;;;;5053080;28;20235;-64
2022/07/02 08:40:31;;;;;;;5.85;1.00;;;18.30;99.90;;;;;;5044573;28;20229;-63
2022/07/02 08:43:00;;;;;;;1.83;1.48;;;19.20;99.90;;;;;;5047232;28;20228;-64
2022/07/02 08:45:31;;;;;;;4.53;1.00;;;19.40;1.00;;;;;;5049487;28;20232;-64
2022/07/02 08:48:00;;;;;;;1.75;1.13;;;19.70;99.90;;;;;;5031959;28;20580;-63
2022/07/02 08:50:28;;;;;;;2.05;0.77;;;19.40;99.90;;;;;;5052927;28;20235;-64
2022/07/02 08:52:55;;;;;;;2.67;1.08;;;19.30;99.90;;;;;;5042842;28;20781;-64
2022/07/02 08:55:22;;;;;;;1.90;1.02;;;19.30;99.90;;;;;;5038961;28;20227;-64
2022/07/02 08:57:51;;;;;;;2.63;0.93;;;19.40;99.90;;;;;;5055670;28;20231;-63
2022/07/02 09:00:20;;;;;;;1.55;1.00;;;19.40;99.90;;;;;;5060917;28;20522;-64
2022/07/02 09:02:49;;;;;;;3.38;0.77;;;19.40;99.90;;;;;;5046510;28;20204;-63
2022/07/02 09:05:18;;;;;;;2.72;1.10;;;19.80;99.90;;;;;;5048126;28;20333;-62
2022/07/02 09:07:47;;;;;;;1.38;1.10;;;19.40;99.90;;;;;;5050904;28;20204;-63
2022/07/02 09:10:17;;;;;;;2.05;1.00;;;18.00;99.90;;;;;;5032864;28;20247;-64
2022/07/02 09:12:45;;;;;;;1.45;1.00;;;19.60;99.90;;;;;;5056923;28;20750;-64
2022/07/02 09:15:13;;;;;;;2.38;1.08;;;19.50;99.90;;;;;;5053702;28;20204;-63
2022/07/02 09:17:41;;;;;;;2.15;1.13;;;19.80;1.00;;;;;;5048596;28;20216;-63
2022/07/02 09:20:09;;;;;;;4.43;1.00;;;19.80;1.00;;;;;;5051599;28;20208;-64
2022/07/02 09:22:40;;;;;;;3.10;1.20;;;19.80;60.20;;;;;;5046523;28;20204;-64
2022/07/02 09:25:09;;;;;;;3.72;1.10;;;19.60;99.90;;;;;;5037450;28;20646;-65
2022/07/02 09:27:36;;;;;;;5.32;1.20;;;19.90;99.90;;;;;;5035317;28;20203;-64
2022/07/02 09:30:05;;;;;;;2.88;1.25;;;20.00;60.80;;;;;;5041332;28;20720;-65
2022/07/02 09:32:39;;;;;;;1.70;0.90;;;20.00;93.60;;;;;;5038223;28;20223;-64
2022/07/02 09:35:07;;;;;;;1.80;1.00;;;20.10;76.80;;;;;;5023910;28;20663;-65
2022/07/02 09:37:34;;;;;;;0.95;0.80;;;20.10;13.80;;;;;;5032838;28;20297;-64
2022/07/02 09:40:04;;;;;;;1.35;0.65;;;19.90;30.80;;;;;;5034076;28;21449;-64
2022/07/02 09:42:32;;;;;;;9.40;1.05;;;19.90;1.00;;;;;;5032963;28;20245;-64
2022/07/02 09:45:00;;;;;;;3.85;1.23;;;19.60;1.00;;;;;;5042111;28;20235;-64
2022/07/02 09:47:32;;;;;;;5.82;1.10;;;19.80;1.00;;;;;;5026482;28;20223;-64
2022/07/02 09:50:03;;;;;;;2.92;1.10;;;19.60;1.00;;;;;;5023677;28;20910;-64
2022/07/02 09:52:31;;;;;;;2.88;1.00;;;19.50;1.00;;;;;;5031447;28;20256;-64
2022/07/02 09:54:58;;;;;;;0.85;0.60;;;19.50;1.00;;;;;;5043400;28;20234;-65
2022/07/02 09:57:28;;;;;;;1.05;0.90;;;19.50;1.00;;;;;;5023316;28;20927;-64
2022/07/02 10:00:03;;;;;;;3.50;1.10;;;19.50;1.00;;;;;;5046044;28;20236;-65
2022/07/02 10:02:30;;;;;;;1.35;1.00;;;19.60;13.20;;;;;;5040777;28;20203;-65
2022/07/02 10:04:57;;;;;;;6.07;1.05;;;19.90;1.00;;;;;;5050394;28;20283;-64
2022/07/02 10:07:25;;;;;;;1.45;0.98;;;20.00;1.00;;;;;;5050452;28;20199;-64
2022/07/02 10:09:53;;;;;;;2.65;1.02;;;20.00;1.00;;;;;;5047523;28;20231;-63
2022/07/02 10:12:20;;;;;;;1.58;0.88;;;20.00;1.00;;;;;;5032097;28;20227;-64
2022/07/02 10:14:50;;;;;;;4.57;1.38;;;19.90;1.00;;;;;;5056644;28;20223;-63
2022/07/02 10:17:17;;;;;;;1.48;1.02;;;20.00;1.00;;;;;;5043290;28;20303;-64
2022/07/02 10:19:44;;;;;;;2.03;1.10;;;20.20;1.70;;;;;;5049674;28;20813;-64
2022/07/02 10:22:11;;;;;;;2.50;1.15;;;20.50;1.00;;;;;;5043534;28;20227;-63
2022/07/02 10:24:38;;;;;;;1.58;1.00;;;20.50;3.10;;;;;;5043804;28;20216;-64
2022/07/02 10:27:05;;;;;;;3.15;1.20;;;20.30;1.00;;;;;;5046322;28;20248;-63
2022/07/02 10:29:32;;;;;;;3.72;1.55;;;20.30;1.00;;;;;;5042170;28;20236;-64
2022/07/02 10:32:15;;;;;;;9.77;1.40;;;20.20;28.10;;;;;;5034649;28;20243;-64
2022/07/02 10:34:55;;;;;;;1.17;1.00;;;20.20;21.10;;;;;;5039773;28;20219;-65
2022/07/02 10:37:22;;;;;;;1.27;1.02;;;20.40;1.00;;;;;;5067342;28;21072;-64
2022/07/02 10:39:49;;;;;;;7.50;1.25;;;20.50;2.20;;;;;;5061295;28;20195;-64
2022/07/02 10:42:16;;;;;;;1.55;0.90;;;20.60;1.00;;;;;;5053916;28;20196;-64
2022/07/02 10:44:45;;;;;;;4.97;0.98;;;20.70;1.00;;;;;;5035991;28;21068;-63
2022/07/02 10:47:25;;;;;;;6.75;1.30;;;20.70;1.00;;;;;;5052394;28;20302;-65
2022/07/02 10:50:01;;;;;;;2.90;1.23;;;20.80;1.00;;;;;;5053494;28;20915;-63
2022/07/02 10:52:47;;;;;;;2.58;1.10;;;20.80;1.00;;;;;;5066795;28;20288;-63
2022/07/02 10:55:25;;;;;;;4.70;1.08;;;21.10;1.00;;;;;;5070006;28;20310;-64
2022/07/02 10:57:56;;;;;;;2.58;1.20;;;21.20;1.00;;;;;;5056713;28;21127;-63
2022/07/02 11:00:28;;;;;;;3.58;1.10;;;21.20;1.00;;;;;;5045242;28;20224;-64
2022/07/02 11:02:58;;;;;;;4.25;1.15;;;21.10;1.00;;;;;;5054024;28;22984;-63
2022/07/02 11:05:25;;;;;;;5.00;1.00;;;21.10;1.00;;;;;;5068294;28;20272;-63
2022/07/02 11:07:52;;;;;;;3.90;1.15;;;21.10;1.00;;;;;;5029517;28;20215;-64
2022/07/02 11:10:34;;;;;;;6.70;0.93;;;21.10;1.00;;;;;;5062827;28;20234;-64
2022/07/02 11:13:02;;;;;;;2.33;1.10;;;21.30;1.00;;;;;;5056564;28;20204;-64
2022/07/02 11:15:35;;;;;;;1.38;1.02;;;21.40;1.00;;;;;;5044745;28;20224;-64
2022/07/02 11:18:07;;;;;;;1.95;0.90;;;21.40;1.00;;;;;;5059518;28;20302;-64
2022/07/02 11:20:35;;;;;;;1.58;1.02;;;21.80;1.00;;;;;;5052172;28;20251;-64
2022/07/02 11:23:03;;;;;;;1.55;1.00;;;21.60;1.00;;;;;;5049395;28;20200;-64
2022/07/02 11:25:31;;;;;;;4.15;0.90;;;21.50;1.00;;;;;;5063860;28;20654;-64
2022/07/02 11:27:59;;;;;;;3.15;1.10;;;21.50;1.00;;;;;;5052744;28;20997;-64
2022/07/02 11:30:28;;;;;;;6.07;1.00;;;21.30;1.00;;;;;;5048939;28;20224;-64
2022/07/02 11:32:55;;;;;;;4.97;1.08;;;;;;;;;;5055527;28;20256;-64
2022/07/02 11:35:23;;;;;;;1.17;0.90;;;21.50;1.00;;;;;;5050070;28;20207;-64
2022/07/02 11:37:54;;;;;;;5.65;1.17;;;21.90;1.00;;;;;;5025366;28;20243;-64
2022/07/02 11:40:24;;;;;;;1.23;1.00;;;21.40;1.00;;;;;;5044489;28;20224;-64
2022/07/02 11:42:51;;;;;;;2.35;1.15;;;24.70;1.00;;;;;;5042113;28;20910;-64
2022/07/02 11:45:19;;;;;;;2.85;1.38;;;21.50;1.00;;;;;;5039716;28;20246;-64
2022/07/02 11:47:47;;;;;;;1.88;1.27;;;21.60;1.00;;;;;;5025816;28;20833;-64
2022/07/02 11:50:15;;;;;;;1.23;1.13;;;21.50;1.00;;;;;;5043277;28;20236;-64
2022/07/02 11:52:43;;;;;;;3.50;1.73;;;21.30;1.00;;;;;;5028795;28;20408;-64
2022/07/02 11:55:16;;;;;;;1.15;1.00;;;21.50;1.00;;;;;;5054213;28;20189;-64
2022/07/02 11:57:44;;;;;;;1.02;0.85;;;21.20;1.00;;;;;;5018554;28;21013;-64
2022/07/02 12:00:12;;;;;;;2.90;0.88;;;21.40;1.00;;;;;;5039384;28;20232;-64
2022/07/02 12:02:40;;;;;;;1.92;1.15;;;21.40;1.00;;;;;;5035461;28;20235;-65
2022/07/02 12:05:17;;;;;;;3.42;0.93;;;21.40;1.00;;;;;;5028810;28;20760;-65
2022/07/02 12:07:46;;;;;;;1.92;1.30;;;21.60;1.00;;;;;;5042490;28;20223;-65
2022/07/02 12:10:14;;;;;;;4.05;1.48;;;21.50;1.00;;;;;;5048491;28;20319;-65
2022/07/02 12:12:41;;;;;;;2.30;1.00;;;21.60;1.00;;;;;;5051444;28;20207;-64
2022/07/02 12:15:09;;;;;;;3.78;1.45;;;21.60;1.00;;;;;;5036345;28;20228;-64
2022/07/02 12:17:37;;;;;;;2.20;1.23;;;21.50;1.00;;;;;;5032195;28;20224;-63
2022/07/02 12:20:06;;;;;;;1.95;1.15;;;22.00;1.00;;;;;;5035247;28;20231;-65
2022/07/02 12:22:34;;;;;;;6.88;1.20;;;21.90;1.00;;;;;;5029898;28;20224;-64
2022/07/02 12:25:05;;;;;;;8.27;1.10;;;21.60;1.00;;;;;;5038766;28;20306;-64
2022/07/02 12:27:34;;;;;;;2.10;0.90;;;21.70;1.00;;;;;;5038173;28;20231;-63
2022/07/02 12:30:11;;;;;;;2.72;1.15;;;21.60;1.00;;;;;;5031161;28;20256;-63
2022/07/02 12:32:39;;;;;;;4.70;1.30;;;21.40;1.00;;;;;;5032441;28;20224;-63
2022/07/02 12:35:08;;;;;;;1.20;1.10;;;21.70;1.00;;;;;;5039236;28;20220;-64
2022/07/02 12:37:37;;;;;;;2.13;1.17;;;21.90;1.00;;;;;;5023236;22;20232;-65
2022/07/02 12:40:08;;;;;;;2.78;1.13;;;21.70;1.00;;;;;;5006491;28;20216;-64
2022/07/02 12:42:46;;;;;;;2.42;1.13;;;21.80;1.00;;;;;;5031250;28;20224;-64
2022/07/02 12:45:22;;;;;;;1.95;1.10;;;;;;;;;;5002385;28;20220;-64
2022/07/02 12:47:57;;;;;;;1.83;1.17;;;21.70;1.00;;;;;;5008237;28;20502;-64
2022/07/02 12:50:24;;;;;;;1.63;1.20;;;21.70;1.00;;;;;;5032114;28;20220;-64
2022/07/02 12:52:53;;;;;;;2.05;1.10;;;21.70;1.00;;;;;;5009289;28;20232;-65
2022/07/02 12:55:26;;;;;;;1.67;0.90;;;21.50;1.00;;;;;;5032684;28;21036;-64
2022/07/02 12:57:53;;;;;;;1.25;1.13;;;21.70;1.00;;;;;;5029535;28;20890;-64
2022/07/02 13:00:22;;;;;;;1.55;1.02;;;21.70;1.00;;;;;;5017607;28;20319;-63
2022/07/02 13:02:58;;;;;;;1.17;1.00;;;22.30;1.00;;;;;;5008916;28;21011;-63